Kastoria National Airport


Codes: LGKA/KSO
Name: Kastoria National Airport
City: Kastoria
Country: Greece
Elevation: 2167 ft.
Wikipedia:

Photos at Kastoria National Airport


   Photos courtesy of SpottingLog. You can add your own sightings and photos by signing up for a free trial today.



No photos found.

Weather at Kastoria National Airport


Time (UTC)DescriptionTempratureWindCloud coverageVisibilityPressureHumidity
18-Apr-2024 00:00Clear Sky8°C7 mph, NW4%10000m1003hPa85%
18-Apr-2024 03:00Few Clouds8°C4 mph, NW13%10000m1003hPa84%
18-Apr-2024 06:00Few Clouds10°C7 mph, NW11%10000m1004hPa69%
18-Apr-2024 09:00Scattered Clouds14°C11 mph, NW36%10000m1005hPa43%
18-Apr-2024 12:00Broken Clouds15°C16 mph, W70%10000m1005hPa38%
18-Apr-2024 15:00Broken Clouds14°C16 mph, W76%10000m1006hPa39%
18-Apr-2024 18:00Scattered Clouds8°C7 mph, W44%10000m1010hPa65%
18-Apr-2024 21:00Broken Clouds7°C4 mph, NW53%10000m1011hPa74%
19-Apr-2024 00:00Broken Clouds6°C2 mph, NW67%10000m1012hPa77%
19-Apr-2024 03:00Broken Clouds5°C0 mph, N53%10000m1012hPa82%
19-Apr-2024 06:00Scattered Clouds9°C2 mph, E45%10000m1012hPa68%
19-Apr-2024 09:00Light Rain13°C7 mph, SE80%10000m1010hPa56%
19-Apr-2024 12:00Light Rain14°C7 mph, E90%10000m1008hPa54%
19-Apr-2024 15:00Moderate Rain9°C7 mph, NE100%10000m1008hPa87%
19-Apr-2024 18:00Moderate Rain7°C7 mph, NW100%4809m1008hPa92%
19-Apr-2024 21:00Moderate Rain7°C7 mph, N100%10000m1008hPa91%
20-Apr-2024 00:00Light Rain7°C7 mph, NW100%10000m1007hPa90%
20-Apr-2024 03:00Overcast Clouds7°C7 mph, NW100%10000m1007hPa84%
20-Apr-2024 06:00Broken Clouds9°C4 mph, NW70%10000m1008hPa71%
20-Apr-2024 09:00Clear Sky15°C0 mph, SW0%10000m1007hPa51%
20-Apr-2024 12:00Few Clouds18°C2 mph, S15%10000m1006hPa39%
20-Apr-2024 15:00Light Rain17°C2 mph, SW86%10000m1006hPa40%
20-Apr-2024 18:00Light Rain10°C4 mph, W77%10000m1008hPa61%
20-Apr-2024 21:00Clear Sky7°C2 mph, SW7%10000m1010hPa76%
21-Apr-2024 00:00Clear Sky6°C2 mph, S10%10000m1011hPa87%
21-Apr-2024 03:00Broken Clouds5°C2 mph, SE68%10000m1011hPa91%
21-Apr-2024 06:00Broken Clouds8°C4 mph, SE70%10000m1010hPa76%
21-Apr-2024 09:00Light Rain9°C4 mph, S100%10000m1010hPa71%
21-Apr-2024 12:00Light Rain11°C4 mph, SE94%10000m1009hPa75%
21-Apr-2024 15:00Light Rain14°C7 mph, W49%10000m1007hPa52%
21-Apr-2024 18:00Light Rain8°C4 mph, W58%10000m1010hPa83%
21-Apr-2024 21:00Light Rain7°C4 mph, W76%10000m1012hPa85%
22-Apr-2024 00:00Light Rain6°C2 mph, W70%10000m1013hPa89%
22-Apr-2024 03:00Few Clouds5°C4 mph, NW12%10000m1014hPa88%
22-Apr-2024 06:00Scattered Clouds9°C2 mph, W27%10000m1015hPa74%
22-Apr-2024 09:00Overcast Clouds13°C2 mph, SW97%10000m1014hPa51%
22-Apr-2024 12:00Overcast Clouds16°C4 mph, SE99%10000m1014hPa44%
22-Apr-2024 15:00Overcast Clouds15°C4 mph, SE100%10000m1014hPa51%
22-Apr-2024 18:00Overcast Clouds11°C2 mph, E95%10000m1015hPa65%
22-Apr-2024 21:00Broken Clouds9°C2 mph, NE75%10000m1016hPa73%